Nippon Maru — 3FDA7 — position and weather

sailwx.info

Track history (hours):
 
Tides and Currents Weather Stations Pressure Air Temp Water Temp Dewpoint Dewpoint Depression Visibility Wind Speed Wind Dir Waves Ship Positions

Nippon Maru

Last reported at 2015-Apr-06 19:32 UTC. Time now 2015-Apr-21 19:05 UTC.
Position N 01°17' E 104°20'.
Warning: this ship's position is 14 days out of date.

Length 190 m; draft 6.2 m.

Type: Cargo ship. MMSI: 353814000.

Date/timePositionNaut miles runAvg speedWind from/ knotsBaromVisibWave heightAir tempDewpointWater temp
2015-Apr-06 19:32N 01°17' E 104°20'1313.2
2015-Apr-06 18:33N 01°15' E 104°07'1211.6
2015-Apr-06 17:32N 01°13' E 103°55'6310.5
2015-Apr-06 11:33N 01°33' E 102°56'1313.3
2015-Apr-06 10:33N 01°39' E 102°44'1514.1
2015-Apr-06 09:28N 01°46' E 102°30'1413.3
2015-Apr-06 08:26N 01°52' E 102°18'1111.6
2015-Apr-06 07:32N 01°58' E 102°09'1311.8
2015-Apr-06 06:26N 02°07' E 101°60'  
Track history (hours):
 
Tides and Currents Weather Stations Pressure Air Temp Water Temp Dewpoint Dewpoint Depression Visibility Wind Speed Wind Dir Waves Ship Positions

Nippon Maru

Last reported at 2015-Apr-06 19:32 UTC. Time now 2015-Apr-21 19:05 UTC.
Position N 01°17' E 104°20'.
Warning: this ship's position is 14 days out of date.

Length 190 m; draft 6.2 m.

Type: Cargo ship. MMSI: 353814000.

Date/timePositionNaut miles runAvg speedWind from/ knotsBaromVisibWave heightAir tempDewpointWater temp
2015-Apr-06 19:32N 01°17' E 104°20'1313.2
2015-Apr-06 18:33N 01°15' E 104°07'1211.6
2015-Apr-06 17:32N 01°13' E 103°55'6310.5
2015-Apr-06 11:33N 01°33' E 102°56'1313.3
2015-Apr-06 10:33N 01°39' E 102°44'1514.1
2015-Apr-06 09:28N 01°46' E 102°30'1413.3
2015-Apr-06 08:26N 01°52' E 102°18'1111.6
2015-Apr-06 07:32N 01°58' E 102°09'1311.8
2015-Apr-06 06:26N 02°07' E 101°60'  

Dump ship's entire track history